Terminal Aerodrome Forecast
Issued by NWS Bismarck, ND

Home | Current Version | Previous Version | Graphics & Text | Print | Product List | Glossary On
Versions: 1 2 3 4 5 6 7 8 9 10 11 12 13 14 15 16 17 18 19 20 21 22 23 24 25 26 27 28 29
860
FTUS43 KBIS 030520
TAFBIS
TAF
KBIS 030520Z 0306/0406 16005KT P6SM BKN050
     FM030900 16006KT P6SM SCT100
     FM040000 19007KT P6SM OVC030
     FM040400 23006KT P6SM BKN025=

USA.gov is the U.S. government's official web portal to all federal, state and local government web resources and services.